sensor_id;sensor_type;location;lat;lon;timestamp;temperature;humidity
52531;DHT22;38441;52.894;6.040;2022-07-23T00:20:02;14.50;99.90
52531;DHT22;38441;52.894;6.040;2022-07-23T00:44:25;14.40;99.90
52531;DHT22;38441;52.894;6.040;2022-07-23T00:46:54;14.30;99.90
52531;DHT22;38441;52.894;6.040;2022-07-23T00:49:21;14.00;99.90
52531;DHT22;38441;52.894;6.040;2022-07-23T00:51:48;14.40;99.90
52531;DHT22;38441;52.894;6.040;2022-07-23T00:56:42;14.10;99.90
52531;DHT22;38441;52.894;6.040;2022-07-23T01:08:54;14.20;99.90
52531;DHT22;38441;52.894;6.040;2022-07-23T03:00:53;13.40;99.90
52531;DHT22;38441;52.894;6.040;2022-07-23T03:05:49;13.30;99.90
52531;DHT22;38441;52.894;6.040;2022-07-23T03:08:15;13.10;99.90
52531;DHT22;38441;52.894;6.040;2022-07-23T03:10:40;13.10;99.90
52531;DHT22;38441;52.894;6.040;2022-07-23T03:13:06;13.00;99.90
52531;DHT22;38441;52.894;6.040;2022-07-23T03:15:32;13.10;99.90
52531;DHT22;38441;52.894;6.040;2022-07-23T03:17:57;13.20;99.90
52531;DHT22;38441;52.894;6.040;2022-07-23T03:20:23;13.00;99.90
52531;DHT22;38441;52.894;6.040;2022-07-23T03:22:48;12.80;99.90
52531;DHT22;38441;52.894;6.040;2022-07-23T03:25:14;13.00;99.90
52531;DHT22;38441;52.894;6.040;2022-07-23T03:27:40;13.00;99.90
52531;DHT22;38441;52.894;6.040;2022-07-23T03:30:06;13.00;99.90
52531;DHT22;38441;52.894;6.040;2022-07-23T03:32:32;13.10;99.90
52531;DHT22;38441;52.894;6.040;2022-07-23T03:34:57;12.90;99.90
52531;DHT22;38441;52.894;6.040;2022-07-23T03:37:23;12.90;99.90
52531;DHT22;38441;52.894;6.040;2022-07-23T03:39:49;12.90;99.90
52531;DHT22;38441;52.894;6.040;2022-07-23T03:42:14;12.90;99.90
52531;DHT22;38441;52.894;6.040;2022-07-23T03:44:40;13.00;99.90
52531;DHT22;38441;52.894;6.040;2022-07-23T03:47:06;12.90;99.90
52531;DHT22;38441;52.894;6.040;2022-07-23T03:49:32;13.00;99.90
52531;DHT22;38441;52.894;6.040;2022-07-23T03:51:58;12.90;99.90
52531;DHT22;38441;52.894;6.040;2022-07-23T03:54:24;12.90;99.90
52531;DHT22;38441;52.894;6.040;2022-07-23T03:56:50;12.80;99.90
52531;DHT22;38441;52.894;6.040;2022-07-23T03:59:16;12.70;99.90
52531;DHT22;38441;52.894;6.040;2022-07-23T04:01:41;12.90;99.90
52531;DHT22;38441;52.894;6.040;2022-07-23T04:04:07;12.70;99.90
52531;DHT22;38441;52.894;6.040;2022-07-23T04:06:34;12.90;99.90
52531;DHT22;38441;52.894;6.040;2022-07-23T04:09:00;12.80;99.90
52531;DHT22;38441;52.894;6.040;2022-07-23T04:11:26;12.90;99.90
52531;DHT22;38441;52.894;6.040;2022-07-23T04:13:51;13.00;99.90
52531;DHT22;38441;52.894;6.040;2022-07-23T04:16:17;12.80;99.90
52531;DHT22;38441;52.894;6.040;2022-07-23T04:18:43;12.90;99.90
52531;DHT22;38441;52.894;6.040;2022-07-23T04:21:08;12.80;99.90
52531;DHT22;38441;52.894;6.040;2022-07-23T04:23:34;12.90;99.90
52531;DHT22;38441;52.894;6.040;2022-07-23T04:26:00;12.90;99.90
52531;DHT22;38441;52.894;6.040;2022-07-23T04:28:26;12.90;99.90
52531;DHT22;38441;52.894;6.040;2022-07-23T04:30:51;12.90;99.90
52531;DHT22;38441;52.894;6.040;2022-07-23T04:33:17;12.80;99.90
52531;DHT22;38441;52.894;6.040;2022-07-23T04:35:43;12.80;99.90
52531;DHT22;38441;52.894;6.040;2022-07-23T04:38:09;13.00;99.90
52531;DHT22;38441;52.894;6.040;2022-07-23T04:40:34;13.00;99.90
52531;DHT22;38441;52.894;6.040;2022-07-23T04:43:00;12.80;99.90
52531;DHT22;38441;52.894;6.040;2022-07-23T04:45:25;13.00;99.90
52531;DHT22;38441;52.894;6.040;2022-07-23T04:47:51;13.10;99.90
52531;DHT22;38441;52.894;6.040;2022-07-23T04:50:17;13.00;99.90
52531;DHT22;38441;52.894;6.040;2022-07-23T04:52:47;13.10;99.90
52531;DHT22;38441;52.894;6.040;2022-07-23T04:55:13;13.20;99.90
52531;DHT22;38441;52.894;6.040;2022-07-23T04:57:38;13.00;99.90
52531;DHT22;38441;52.894;6.040;2022-07-23T05:00:06;12.90;99.90
52531;DHT22;38441;52.894;6.040;2022-07-23T05:02:32;13.20;99.90
52531;DHT22;38441;52.894;6.040;2022-07-23T05:04:58;13.10;99.90
52531;DHT22;38441;52.894;6.040;2022-07-23T05:07:23;13.10;99.90
52531;DHT22;38441;52.894;6.040;2022-07-23T05:09:49;13.20;99.90
52531;DHT22;38441;52.894;6.040;2022-07-23T05:12:15;13.10;99.90
52531;DHT22;38441;52.894;6.040;2022-07-23T05:14:40;13.10;99.90
52531;DHT22;38441;52.894;6.040;2022-07-23T05:17:07;13.30;99.90
52531;DHT22;38441;52.894;6.040;2022-07-23T05:19:34;13.30;99.90
52531;DHT22;38441;52.894;6.040;2022-07-23T05:22:00;13.40;99.90
52531;DHT22;38441;52.894;6.040;2022-07-23T05:24:25;13.30;99.90
52531;DHT22;38441;52.894;6.040;2022-07-23T05:26:51;13.30;99.90
52531;DHT22;38441;52.894;6.040;2022-07-23T05:29:17;13.20;99.90
52531;DHT22;38441;52.894;6.040;2022-07-23T05:31:42;13.30;99.90
52531;DHT22;38441;52.894;6.040;2022-07-23T05:34:08;13.60;99.90
52531;DHT22;38441;52.894;6.040;2022-07-23T05:36:34;13.50;99.90
52531;DHT22;38441;52.894;6.040;2022-07-23T05:38:59;13.30;99.90
52531;DHT22;38441;52.894;6.040;2022-07-23T05:41:25;13.50;99.90
52531;DHT22;38441;52.894;6.040;2022-07-23T05:43:51;13.60;99.90
52531;DHT22;38441;52.894;6.040;2022-07-23T05:46:17;13.50;99.90
52531;DHT22;38441;52.894;6.040;2022-07-23T05:48:42;13.60;99.90
52531;DHT22;38441;52.894;6.040;2022-07-23T05:51:08;13.50;99.90
52531;DHT22;38441;52.894;6.040;2022-07-23T05:53:35;13.70;99.90
52531;DHT22;38441;52.894;6.040;2022-07-23T05:56:01;13.60;99.90
52531;DHT22;38441;52.894;6.040;2022-07-23T05:58:27;13.90;99.90
52531;DHT22;38441;52.894;6.040;2022-07-23T06:00:52;13.70;99.90
52531;DHT22;38441;52.894;6.040;2022-07-23T06:03:18;13.90;99.90
52531;DHT22;38441;52.894;6.040;2022-07-23T06:05:45;13.90;99.90
52531;DHT22;38441;52.894;6.040;2022-07-23T06:08:10;13.80;99.90
52531;DHT22;38441;52.894;6.040;2022-07-23T06:10:36;14.00;99.90
52531;DHT22;38441;52.894;6.040;2022-07-23T06:13:02;14.10;99.90
52531;DHT22;38441;52.894;6.040;2022-07-23T06:15:27;14.10;99.90
52531;DHT22;38441;52.894;6.040;2022-07-23T06:17:53;14.10;99.90
52531;DHT22;38441;52.894;6.040;2022-07-23T06:20:19;14.10;99.90
52531;DHT22;38441;52.894;6.040;2022-07-23T06:22:44;14.20;99.90
52531;DHT22;38441;52.894;6.040;2022-07-23T06:25:10;14.10;99.90
52531;DHT22;38441;52.894;6.040;2022-07-23T06:27:36;14.30;99.90
52531;DHT22;38441;52.894;6.040;2022-07-23T06:30:01;14.40;99.90
52531;DHT22;38441;52.894;6.040;2022-07-23T06:32:27;14.40;99.90
52531;DHT22;38441;52.894;6.040;2022-07-23T06:34:52;14.50;99.90
52531;DHT22;38441;52.894;6.040;2022-07-23T06:37:18;14.50;99.90
52531;DHT22;38441;52.894;6.040;2022-07-23T06:39:49;14.70;99.90
52531;DHT22;38441;52.894;6.040;2022-07-23T06:42:14;14.60;99.90
52531;DHT22;38441;52.894;6.040;2022-07-23T06:44:41;14.90;99.90
52531;DHT22;38441;52.894;6.040;2022-07-23T06:47:07;15.00;99.90
52531;DHT22;38441;52.894;6.040;2022-07-23T06:49:33;15.20;99.90
52531;DHT22;38441;52.894;6.040;2022-07-23T06:51:58;15.20;99.90
52531;DHT22;38441;52.894;6.040;2022-07-23T06:54:24;15.20;99.90
52531;DHT22;38441;52.894;6.040;2022-07-23T06:56:50;15.30;99.90
52531;DHT22;38441;52.894;6.040;2022-07-23T06:59:15;15.40;99.90
52531;DHT22;38441;52.894;6.040;2022-07-23T07:07:16;15.80;99.90
52531;DHT22;38441;52.894;6.040;2022-07-23T07:09:42;15.90;99.90
52531;DHT22;38441;52.894;6.040;2022-07-23T07:12:09;15.90;99.90
52531;DHT22;38441;52.894;6.040;2022-07-23T07:14:57;15.90;99.90
52531;DHT22;38441;52.894;6.040;2022-07-23T07:17:29;16.00;99.90
52531;DHT22;38441;52.894;6.040;2022-07-23T07:19:59;16.30;99.90
52531;DHT22;38441;52.894;6.040;2022-07-23T07:22:25;16.10;99.90
52531;DHT22;38441;52.894;6.040;2022-07-23T07:24:50;16.10;99.90
52531;DHT22;38441;52.894;6.040;2022-07-23T07:27:16;16.10;99.90
52531;DHT22;38441;52.894;6.040;2022-07-23T07:29:42;16.20;99.90
52531;DHT22;38441;52.894;6.040;2022-07-23T07:32:07;16.40;99.90
52531;DHT22;38441;52.894;6.040;2022-07-23T07:34:33;16.30;99.90
52531;DHT22;38441;52.894;6.040;2022-07-23T07:36:59;16.50;99.90
52531;DHT22;38441;52.894;6.040;2022-07-23T07:39:25;16.50;99.90
52531;DHT22;38441;52.894;6.040;2022-07-23T07:41:54;16.80;99.90
52531;DHT22;38441;52.894;6.040;2022-07-23T07:44:20;16.90;99.90
52531;DHT22;38441;52.894;6.040;2022-07-23T07:46:47;16.80;99.90
52531;DHT22;38441;52.894;6.040;2022-07-23T07:49:13;17.00;99.90
52531;DHT22;38441;52.894;6.040;2022-07-23T07:51:38;17.00;99.90
52531;DHT22;38441;52.894;6.040;2022-07-23T07:54:04;17.00;99.90
52531;DHT22;38441;52.894;6.040;2022-07-23T07:56:30;17.00;99.90
52531;DHT22;38441;52.894;6.040;2022-07-23T07:58:55;17.10;99.90
52531;DHT22;38441;52.894;6.040;2022-07-23T08:01:21;17.10;99.90
52531;DHT22;38441;52.894;6.040;2022-07-23T08:03:46;17.30;99.90
52531;DHT22;38441;52.894;6.040;2022-07-23T08:06:12;17.20;99.90
52531;DHT22;38441;52.894;6.040;2022-07-23T08:08:38;17.50;99.90
52531;DHT22;38441;52.894;6.040;2022-07-23T08:11:04;17.40;99.90
52531;DHT22;38441;52.894;6.040;2022-07-23T08:13:29;17.80;99.90
52531;DHT22;38441;52.894;6.040;2022-07-23T08:15:55;17.80;99.90
52531;DHT22;38441;52.894;6.040;2022-07-23T08:18:20;17.90;99.90
52531;DHT22;38441;52.894;6.040;2022-07-23T08:20:46;17.90;99.90
52531;DHT22;38441;52.894;6.040;2022-07-23T08:23:12;18.10;99.90
52531;DHT22;38441;52.894;6.040;2022-07-23T08:25:40;18.40;99.90
52531;DHT22;38441;52.894;6.040;2022-07-23T08:28:10;18.40;99.90
52531;DHT22;38441;52.894;6.040;2022-07-23T08:30:37;18.30;99.90
52531;DHT22;38441;52.894;6.040;2022-07-23T08:33:05;18.40;99.90
52531;DHT22;38441;52.894;6.040;2022-07-23T08:35:46;18.30;99.90
52531;DHT22;38441;52.894;6.040;2022-07-23T08:38:14;18.30;99.90
52531;DHT22;38441;52.894;6.040;2022-07-23T08:40:41;18.40;99.90
52531;DHT22;38441;52.894;6.040;2022-07-23T08:43:09;18.40;99.90
52531;DHT22;38441;52.894;6.040;2022-07-23T08:45:40;18.50;99.90
52531;DHT22;38441;52.894;6.040;2022-07-23T08:48:13;18.30;99.90
52531;DHT22;38441;52.894;6.040;2022-07-23T08:50:43;18.60;99.90
52531;DHT22;38441;52.894;6.040;2022-07-23T08:53:09;18.60;99.90
52531;DHT22;38441;52.894;6.040;2022-07-23T08:55:35;19.00;99.90
52531;DHT22;38441;52.894;6.040;2022-07-23T08:58:01;18.90;99.90
52531;DHT22;38441;52.894;6.040;2022-07-23T09:00:28;19.00;99.90
52531;DHT22;38441;52.894;6.040;2022-07-23T09:02:54;19.10;99.90
52531;DHT22;38441;52.894;6.040;2022-07-23T09:05:20;19.10;99.90
52531;DHT22;38441;52.894;6.040;2022-07-23T09:08:14;19.10;99.90
52531;DHT22;38441;52.894;6.040;2022-07-23T09:10:46;19.30;99.90
52531;DHT22;38441;52.894;6.040;2022-07-23T09:13:36;19.30;99.90
52531;DHT22;38441;52.894;6.040;2022-07-23T09:16:09;19.60;99.90
52531;DHT22;38441;52.894;6.040;2022-07-23T09:18:42;19.40;99.90
52531;DHT22;38441;52.894;6.040;2022-07-23T09:26:38;19.80;99.90
52531;DHT22;38441;52.894;6.040;2022-07-23T09:29:21;19.90;99.90
52531;DHT22;38441;52.894;6.040;2022-07-23T09:31:58;19.90;99.90
52531;DHT22;38441;52.894;6.040;2022-07-23T09:34:25;20.00;99.90
52531;DHT22;38441;52.894;6.040;2022-07-23T09:36:54;21.20;99.90
52531;DHT22;38441;52.894;6.040;2022-07-23T09:39:32;20.40;99.90
52531;DHT22;38441;52.894;6.040;2022-07-23T09:42:18;21.30;99.90
52531;DHT22;38441;52.894;6.040;2022-07-23T09:44:47;20.40;99.90
52531;DHT22;38441;52.894;6.040;2022-07-23T09:50:26;17.40;99.90
52531;DHT22;38441;52.894;6.040;2022-07-23T09:52:52;20.40;99.90
52531;DHT22;38441;52.894;6.040;2022-07-23T09:55:18;21.90;99.90
52531;DHT22;38441;52.894;6.040;2022-07-23T09:57:45;20.60;99.90
52531;DHT22;38441;52.894;6.040;2022-07-23T10:00:14;22.90;99.90
52531;DHT22;38441;52.894;6.040;2022-07-23T10:02:40;20.80;99.90
52531;DHT22;38441;52.894;6.040;2022-07-23T10:05:06;23.10;99.90
52531;DHT22;38441;52.894;6.040;2022-07-23T10:07:37;21.00;99.90
52531;DHT22;38441;52.894;6.040;2022-07-23T10:10:04;20.80;99.90
52531;DHT22;38441;52.894;6.040;2022-07-23T10:12:30;21.10;99.90
52531;DHT22;38441;52.894;6.040;2022-07-23T10:15:12;20.50;99.90
52531;DHT22;38441;52.894;6.040;2022-07-23T10:17:37;22.50;99.90
52531;DHT22;38441;52.894;6.040;2022-07-23T10:20:04;20.70;99.90
52531;DHT22;38441;52.894;6.040;2022-07-23T10:22:35;23.30;99.90
52531;DHT22;38441;52.894;6.040;2022-07-23T10:25:19;20.90;99.90
52531;DHT22;38441;52.894;6.040;2022-07-23T10:28:16;21.10;99.90
52531;DHT22;38441;52.894;6.040;2022-07-23T10:30:47;21.20;99.90
52531;DHT22;38441;52.894;6.040;2022-07-23T10:33:41;21.10;99.90
52531;DHT22;38441;52.894;6.040;2022-07-23T10:36:36;21.10;99.90
52531;DHT22;38441;52.894;6.040;2022-07-23T10:39:20;21.50;99.90
52531;DHT22;38441;52.894;6.040;2022-07-23T10:41:47;21.60;99.90
52531;DHT22;38441;52.894;6.040;2022-07-23T10:44:20;23.80;99.90
52531;DHT22;38441;52.894;6.040;2022-07-23T10:47:06;21.40;99.90
52531;DHT22;38441;52.894;6.040;2022-07-23T10:49:52;22.90;99.90
52531;DHT22;38441;52.894;6.040;2022-07-23T10:52:24;22.60;99.90
52531;DHT22;38441;52.894;6.040;2022-07-23T10:54:55;21.60;99.90
52531;DHT22;38441;52.894;6.040;2022-07-23T10:57:25;21.80;99.90
52531;DHT22;38441;52.894;6.040;2022-07-23T11:02:36;23.00;99.90
52531;DHT22;38441;52.894;6.040;2022-07-23T11:05:05;23.70;99.90
52531;DHT22;38441;52.894;6.040;2022-07-23T11:07:31;22.50;99.90
52531;DHT22;38441;52.894;6.040;2022-07-23T11:09:57;24.80;99.90
52531;DHT22;38441;52.894;6.040;2022-07-23T11:15:13;22.30;99.90
52531;DHT22;38441;52.894;6.040;2022-07-23T11:25:09;22.60;99.90
52531;DHT22;38441;52.894;6.040;2022-07-23T11:27:45;23.90;99.90
52531;DHT22;38441;52.894;6.040;2022-07-23T11:35:42;22.30;99.90
52531;DHT22;38441;52.894;6.040;2022-07-23T11:38:20;22.30;99.90
52531;DHT22;38441;52.894;6.040;2022-07-23T11:40:48;22.10;99.90
52531;DHT22;38441;52.894;6.040;2022-07-23T11:43:14;22.20;99.90
52531;DHT22;38441;52.894;6.040;2022-07-23T11:45:50;24.00;99.90
52531;DHT22;38441;52.894;6.040;2022-07-23T11:48:21;23.20;99.90
52531;DHT22;38441;52.894;6.040;2022-07-23T11:50:47;24.30;99.90
52531;DHT22;38441;52.894;6.040;2022-07-23T11:53:23;23.80;99.90
52531;DHT22;38441;52.894;6.040;2022-07-23T11:55:49;23.20;99.90
52531;DHT22;38441;52.894;6.040;2022-07-23T11:58:15;26.20;99.90
52531;DHT22;38441;52.894;6.040;2022-07-23T12:00:41;23.20;99.90
52531;DHT22;38441;52.894;6.040;2022-07-23T12:03:07;23.20;99.90
52531;DHT22;38441;52.894;6.040;2022-07-23T12:05:34;24.50;99.90
52531;DHT22;38441;52.894;6.040;2022-07-23T12:08:02;25.60;99.90
52531;DHT22;38441;52.894;6.040;2022-07-23T12:13:01;23.30;99.90
52531;DHT22;38441;52.894;6.040;2022-07-23T12:15:31;24.80;99.90
52531;DHT22;38441;52.894;6.040;2022-07-23T12:18:00;24.00;99.90
52531;DHT22;38441;52.894;6.040;2022-07-23T12:20:30;24.40;99.90
52531;DHT22;38441;52.894;6.040;2022-07-23T12:22:58;22.90;99.90
52531;DHT22;38441;52.894;6.040;2022-07-23T12:25:44;24.40;99.90
52531;DHT22;38441;52.894;6.040;2022-07-23T12:28:15;24.20;99.90
52531;DHT22;38441;52.894;6.040;2022-07-23T12:30:47;24.30;99.90
52531;DHT22;38441;52.894;6.040;2022-07-23T12:33:22;22.80;99.90
52531;DHT22;38441;52.894;6.040;2022-07-23T12:35:49;22.90;99.90
52531;DHT22;38441;52.894;6.040;2022-07-23T12:38:20;22.90;99.90
52531;DHT22;38441;52.894;6.040;2022-07-23T12:40:48;22.20;99.90
52531;DHT22;38441;52.894;6.040;2022-07-23T12:43:41;25.20;99.90
52531;DHT22;38441;52.894;6.040;2022-07-23T12:46:18;26.00;99.90
52531;DHT22;38441;52.894;6.040;2022-07-23T12:51:28;25.80;99.90
52531;DHT22;38441;52.894;6.040;2022-07-23T12:53:56;23.10;99.90
52531;DHT22;38441;52.894;6.040;2022-07-23T12:56:31;24.90;99.90
52531;DHT22;38441;52.894;6.040;2022-07-23T12:59:09;23.90;99.90
52531;DHT22;38441;52.894;6.040;2022-07-23T13:01:44;23.50;99.90
52531;DHT22;38441;52.894;6.040;2022-07-23T13:04:22;25.30;99.90
52531;DHT22;38441;52.894;6.040;2022-07-23T13:06:52;25.20;99.90
52531;DHT22;38441;52.894;6.040;2022-07-23T13:09:22;24.70;99.90
52531;DHT22;38441;52.894;6.040;2022-07-23T13:11:49;26.30;99.90
52531;DHT22;38441;52.894;6.040;2022-07-23T13:14:16;26.50;99.90
52531;DHT22;38441;52.894;6.040;2022-07-23T13:16:42;23.60;99.90
52531;DHT22;38441;52.894;6.040;2022-07-23T13:19:08;25.20;99.90
52531;DHT22;38441;52.894;6.040;2022-07-23T13:21:34;23.90;99.90
52531;DHT22;38441;52.894;6.040;2022-07-23T13:24:00;23.80;99.90
52531;DHT22;38441;52.894;6.040;2022-07-23T13:26:26;26.00;99.90
52531;DHT22;38441;52.894;6.040;2022-07-23T13:28:52;23.90;99.90
52531;DHT22;38441;52.894;6.040;2022-07-23T13:31:19;25.50;99.90
52531;DHT22;38441;52.894;6.040;2022-07-23T13:33:44;26.80;99.90
52531;DHT22;38441;52.894;6.040;2022-07-23T13:36:10;23.90;99.90
52531;DHT22;38441;52.894;6.040;2022-07-23T13:38:36;25.70;99.90
52531;DHT22;38441;52.894;6.040;2022-07-23T13:41:02;26.50;99.90
52531;DHT22;38441;52.894;6.040;2022-07-23T13:43:28;26.90;99.90
52531;DHT22;38441;52.894;6.040;2022-07-23T13:45:54;26.20;99.90
52531;DHT22;38441;52.894;6.040;2022-07-23T13:48:20;26.00;99.90
52531;DHT22;38441;52.894;6.040;2022-07-23T13:50:47;25.90;99.90
52531;DHT22;38441;52.894;6.040;2022-07-23T13:53:23;26.00;99.90
52531;DHT22;38441;52.894;6.040;2022-07-23T13:55:50;26.50;99.90
52531;DHT22;38441;52.894;6.040;2022-07-23T13:58:17;26.20;99.90
52531;DHT22;38441;52.894;6.040;2022-07-23T14:00:48;24.60;99.90
52531;DHT22;38441;52.894;6.040;2022-07-23T14:03:16;24.50;99.90
52531;DHT22;38441;52.894;6.040;2022-07-23T14:05:42;25.00;99.90
52531;DHT22;38441;52.894;6.040;2022-07-23T14:08:08;24.40;99.90
52531;DHT22;38441;52.894;6.040;2022-07-23T14:10:34;24.30;99.90
52531;DHT22;38441;52.894;6.040;2022-07-23T14:13:00;25.00;99.90
52531;DHT22;38441;52.894;6.040;2022-07-23T14:15:27;26.70;99.90
52531;DHT22;38441;52.894;6.040;2022-07-23T14:17:54;25.30;99.90
52531;DHT22;38441;52.894;6.040;2022-07-23T14:20:20;26.50;99.90
52531;DHT22;38441;52.894;6.040;2022-07-23T14:22:46;25.40;99.90
52531;DHT22;38441;52.894;6.040;2022-07-23T14:25:12;26.30;99.90
52531;DHT22;38441;52.894;6.040;2022-07-23T14:27:38;25.00;99.90
52531;DHT22;38441;52.894;6.040;2022-07-23T14:30:08;25.00;99.90
52531;DHT22;38441;52.894;6.040;2022-07-23T14:32:35;24.80;99.90
52531;DHT22;38441;52.894;6.040;2022-07-23T14:35:01;25.00;99.90
52531;DHT22;38441;52.894;6.040;2022-07-23T14:37:26;26.20;99.90
52531;DHT22;38441;52.894;6.040;2022-07-23T14:39:52;24.80;99.90
52531;DHT22;38441;52.894;6.040;2022-07-23T14:42:18;24.40;99.90
52531;DHT22;38441;52.894;6.040;2022-07-23T14:44:44;25.50;99.90
52531;DHT22;38441;52.894;6.040;2022-07-23T14:47:10;24.70;99.90
52531;DHT22;38441;52.894;6.040;2022-07-23T14:49:35;24.50;99.90
52531;DHT22;38441;52.894;6.040;2022-07-23T14:52:02;26.70;99.90
52531;DHT22;38441;52.894;6.040;2022-07-23T14:54:29;24.90;99.90
52531;DHT22;38441;52.894;6.040;2022-07-23T14:56:55;25.60;99.90
52531;DHT22;38441;52.894;6.040;2022-07-23T14:59:21;24.20;99.90
52531;DHT22;38441;52.894;6.040;2022-07-23T15:01:47;25.20;99.90
52531;DHT22;38441;52.894;6.040;2022-07-23T15:04:13;25.70;99.90
52531;DHT22;38441;52.894;6.040;2022-07-23T15:06:39;25.70;99.90
52531;DHT22;38441;52.894;6.040;2022-07-23T15:09:05;25.90;99.90
52531;DHT22;38441;52.894;6.040;2022-07-23T15:11:31;25.90;99.90
52531;DHT22;38441;52.894;6.040;2022-07-23T15:14:00;25.60;99.90
52531;DHT22;38441;52.894;6.040;2022-07-23T15:16:26;25.70;99.90
52531;DHT22;38441;52.894;6.040;2022-07-23T15:18:52;25.80;99.90
52531;DHT22;38441;52.894;6.040;2022-07-23T15:21:18;25.90;99.90
52531;DHT22;38441;52.894;6.040;2022-07-23T15:23:43;24.20;99.90
52531;DHT22;38441;52.894;6.040;2022-07-23T15:26:09;24.40;99.90
52531;DHT22;38441;52.894;6.040;2022-07-23T15:28:35;24.70;99.90
52531;DHT22;38441;52.894;6.040;2022-07-23T15:31:02;25.50;99.90
52531;DHT22;38441;52.894;6.040;2022-07-23T15:33:28;26.40;99.90
52531;DHT22;38441;52.894;6.040;2022-07-23T15:35:54;24.00;99.90
52531;DHT22;38441;52.894;6.040;2022-07-23T15:38:22;23.80;99.90
52531;DHT22;38441;52.894;6.040;2022-07-23T15:40:47;25.60;99.90
52531;DHT22;38441;52.894;6.040;2022-07-23T15:43:13;25.30;99.90
52531;DHT22;38441;52.894;6.040;2022-07-23T15:45:39;24.30;99.90
52531;DHT22;38441;52.894;6.040;2022-07-23T15:48:05;23.70;99.90
52531;DHT22;38441;52.894;6.040;2022-07-23T15:50:30;23.90;99.90
52531;DHT22;38441;52.894;6.040;2022-07-23T15:52:56;25.00;99.90
52531;DHT22;38441;52.894;6.040;2022-07-23T15:55:22;25.80;99.90
52531;DHT22;38441;52.894;6.040;2022-07-23T15:57:48;23.70;99.90
52531;DHT22;38441;52.894;6.040;2022-07-23T16:00:14;23.20;99.90
52531;DHT22;38441;52.894;6.040;2022-07-23T16:02:40;23.10;99.90
52531;DHT22;38441;52.894;6.040;2022-07-23T16:05:05;24.50;99.90
52531;DHT22;38441;52.894;6.040;2022-07-23T16:07:31;23.40;99.90
52531;DHT22;38441;52.894;6.040;2022-07-23T16:09:59;23.00;99.90
52531;DHT22;38441;52.894;6.040;2022-07-23T16:12:25;24.70;99.90
52531;DHT22;38441;52.894;6.040;2022-07-23T16:14:50;23.10;99.90
52531;DHT22;38441;52.894;6.040;2022-07-23T16:17:16;22.90;99.90
52531;DHT22;38441;52.894;6.040;2022-07-23T16:19:42;23.00;99.90
52531;DHT22;38441;52.894;6.040;2022-07-23T16:22:08;24.10;99.90
52531;DHT22;38441;52.894;6.040;2022-07-23T16:24:35;23.10;99.90
52531;DHT22;38441;52.894;6.040;2022-07-23T16:27:01;22.60;99.90
52531;DHT22;38441;52.894;6.040;2022-07-23T16:29:27;22.90;99.90
52531;DHT22;38441;52.894;6.040;2022-07-23T16:31:52;23.90;99.90
52531;DHT22;38441;52.894;6.040;2022-07-23T16:34:18;24.10;99.90
52531;DHT22;38441;52.894;6.040;2022-07-23T16:36:44;22.60;99.90
52531;DHT22;38441;52.894;6.040;2022-07-23T16:39:09;25.00;99.90
52531;DHT22;38441;52.894;6.040;2022-07-23T16:41:35;24.90;99.90
52531;DHT22;38441;52.894;6.040;2022-07-23T16:44:00;22.60;99.90
52531;DHT22;38441;52.894;6.040;2022-07-23T16:46:27;23.70;99.90
52531;DHT22;38441;52.894;6.040;2022-07-23T16:48:53;22.80;99.90
52531;DHT22;38441;52.894;6.040;2022-07-23T16:51:19;24.00;99.90
52531;DHT22;38441;52.894;6.040;2022-07-23T16:53:44;24.70;99.90
52531;DHT22;38441;52.894;6.040;2022-07-23T16:56:10;24.10;99.90
52531;DHT22;38441;52.894;6.040;2022-07-23T16:58:36;23.80;99.90
52531;DHT22;38441;52.894;6.040;2022-07-23T17:01:02;23.50;99.90
52531;DHT22;38441;52.894;6.040;2022-07-23T17:03:28;24.50;99.90
52531;DHT22;38441;52.894;6.040;2022-07-23T17:05:55;22.60;99.90
52531;DHT22;38441;52.894;6.040;2022-07-23T17:08:21;23.50;99.90
52531;DHT22;38441;52.894;6.040;2022-07-23T17:10:46;22.40;99.90
52531;DHT22;38441;52.894;6.040;2022-07-23T17:13:12;23.50;99.90
52531;DHT22;38441;52.894;6.040;2022-07-23T17:15:38;22.30;99.90
52531;DHT22;38441;52.894;6.040;2022-07-23T17:18:04;22.00;99.90
52531;DHT22;38441;52.894;6.040;2022-07-23T17:20:30;22.10;99.90
52531;DHT22;38441;52.894;6.040;2022-07-23T17:22:56;23.80;99.90
52531;DHT22;38441;52.894;6.040;2022-07-23T17:25:22;23.90;99.90
52531;DHT22;38441;52.894;6.040;2022-07-23T17:27:48;21.90;99.90
52531;DHT22;38441;52.894;6.040;2022-07-23T17:30:14;24.20;99.90
52531;DHT22;38441;52.894;6.040;2022-07-23T17:32:41;24.00;99.90
52531;DHT22;38441;52.894;6.040;2022-07-23T17:35:07;21.90;99.90
52531;DHT22;38441;52.894;6.040;2022-07-23T17:37:34;22.20;99.90
52531;DHT22;38441;52.894;6.040;2022-07-23T17:56:17;21.60;99.90
52531;DHT22;38441;52.894;6.040;2022-07-23T17:58:43;22.10;99.90
52531;DHT22;38441;52.894;6.040;2022-07-23T18:01:08;24.00;99.90
52531;DHT22;38441;52.894;6.040;2022-07-23T18:03:34;24.20;99.90
52531;DHT22;38441;52.894;6.040;2022-07-23T18:06:01;23.70;99.90
52531;DHT22;38441;52.894;6.040;2022-07-23T18:08:26;21.60;99.90
52531;DHT22;38441;52.894;6.040;2022-07-23T18:10:52;21.80;99.90
52531;DHT22;38441;52.894;6.040;2022-07-23T18:13:18;21.80;99.90
52531;DHT22;38441;52.894;6.040;2022-07-23T18:15:44;21.70;99.90
52531;DHT22;38441;52.894;6.040;2022-07-23T18:18:09;21.60;99.90
52531;DHT22;38441;52.894;6.040;2022-07-23T18:20:37;21.90;99.90
52531;DHT22;38441;52.894;6.040;2022-07-23T18:23:03;23.60;99.90
52531;DHT22;38441;52.894;6.040;2022-07-23T18:25:29;21.70;99.90
52531;DHT22;38441;52.894;6.040;2022-07-23T18:27:54;21.40;99.90
52531;DHT22;38441;52.894;6.040;2022-07-23T18:30:20;21.40;99.90
52531;DHT22;38441;52.894;6.040;2022-07-23T18:32:46;22.90;99.90
52531;DHT22;38441;52.894;6.040;2022-07-23T18:35:12;22.40;99.90
52531;DHT22;38441;52.894;6.040;2022-07-23T18:37:37;22.30;99.90
52531;DHT22;38441;52.894;6.040;2022-07-23T18:40:05;22.30;99.90
52531;DHT22;38441;52.894;6.040;2022-07-23T18:42:32;21.20;99.90
52531;DHT22;38441;52.894;6.040;2022-07-23T18:44:58;21.50;99.90
52531;DHT22;38441;52.894;6.040;2022-07-23T18:47:26;22.70;99.90
52531;DHT22;38441;52.894;6.040;2022-07-23T18:49:52;22.30;99.90
52531;DHT22;38441;52.894;6.040;2022-07-23T18:52:27;20.80;99.90
52531;DHT22;38441;52.894;6.040;2022-07-23T18:54:53;22.50;99.90
52531;DHT22;38441;52.894;6.040;2022-07-23T18:57:18;22.70;99.90
52531;DHT22;38441;52.894;6.040;2022-07-23T18:59:44;20.90;99.90
52531;DHT22;38441;52.894;6.040;2022-07-23T19:02:10;22.30;99.90
52531;DHT22;38441;52.894;6.040;2022-07-23T19:04:35;22.30;99.90
52531;DHT22;38441;52.894;6.040;2022-07-23T19:07:01;22.60;99.90
52531;DHT22;38441;52.894;6.040;2022-07-23T19:09:27;22.50;99.90
52531;DHT22;38441;52.894;6.040;2022-07-23T19:11:52;20.40;99.90